Time;durP1;ratioP1;P1;durP2;ratioP2;P2;SDS_P1;SDS_P2;PMS_P1;PMS_P2;Temp;Humidity;BMP_temperature;BMP_pressure;BME280_temperature;BME280_humidity;BME280_pressure;Samples;Min_cycle;Max_cycle;Signal;HPM_P1;HPM_P2
2022/11/09 00:03:35;;;;;;;5.03;1.42;;;;;;;13.68;62.75;99547.94;10133416;29;20081;-78
2022/11/09 00:08:40;;;;;;;2.50;1.27;;;;;;;13.86;62.08;99537.00;10116504;29;20113;-77
2022/11/09 00:13:44;;;;;;;2.97;1.55;;;;;;;13.92;62.10;99532.81;10115512;29;20131;-77
2022/11/09 00:18:47;;;;;;;3.55;1.38;;;;;;;13.83;61.88;99542.75;10115423;29;20065;-78
2022/11/09 00:23:52;;;;;;;2.97;1.40;;;;;;;14.14;61.19;99542.09;10120438;29;20064;-78
2022/11/09 00:28:55;;;;;;;1.90;1.30;;;;;;;14.16;60.87;99538.22;10116498;29;20089;-77
2022/11/09 00:33:58;;;;;;;1.40;1.10;;;;;;;14.26;60.81;99529.97;10118579;29;20053;-77
2022/11/09 00:39:02;;;;;;;3.13;1.30;;;;;;;14.22;60.96;99541.28;10122363;29;20458;-78
2022/11/09 00:44:07;;;;;;;2.25;1.20;;;;;;;14.05;61.01;99526.91;10117923;29;20047;-77
2022/11/09 00:49:10;;;;;;;5.75;1.20;;;;;;;14.32;60.69;99526.59;10141729;29;20055;-77
2022/11/09 00:54:16;;;;;;;2.13;1.30;;;;;;;14.19;60.66;99536.22;10112025;29;20124;-77
2022/11/09 00:59:19;;;;;;;1.75;1.48;;;;;;;14.25;60.75;99533.66;10129820;29;20080;-78
2022/11/09 01:04:22;;;;;;;3.80;1.17;;;;;;;14.15;61.13;99533.84;10113363;29;20056;-78
2022/11/09 01:09:29;;;;;;;3.20;1.02;;;;;;;14.15;60.91;99532.97;10131261;29;20144;-77
2022/11/09 01:14:32;;;;;;;3.33;0.90;;;;;;;14.08;61.24;99530.13;10132315;29;20510;-78
2022/11/09 01:19:37;;;;;;;2.97;1.15;;;;;;;14.18;60.99;99538.06;10139358;29;20108;-77
2022/11/09 01:24:42;;;;;;;3.33;1.00;;;;;;;14.23;60.51;99541.09;10118947;29;20056;-78
2022/11/09 01:29:44;;;;;;;1.55;0.88;;;;;;;14.16;61.05;99534.69;10119714;29;20108;-78
2022/11/09 01:34:47;;;;;;;2.80;1.30;;;;;;;14.14;60.97;99532.13;10129227;29;20144;-78
2022/11/09 01:39:51;;;;;;;3.47;1.02;;;;;;;14.19;60.57;99523.53;10132711;29;20145;-77
2022/11/09 01:45:24;;;;;;;2.38;0.90;;;;;;;13.99;61.69;99524.88;10137446;29;20056;-77
2022/11/09 01:50:35;;;;;;;1.77;0.82;;;;;;;14.01;61.52;99520.16;10134034;29;20117;-78
2022/11/09 01:55:39;;;;;;;1.92;1.23;;;;;;;13.98;61.89;99515.09;10130400;29;20465;-78
2022/11/09 02:00:47;;;;;;;1.35;1.10;;;;;;;13.82;62.14;99510.50;10124754;29;20486;-78
2022/11/09 02:05:51;;;;;;;1.65;0.95;;;;;;;14.01;61.44;99509.34;10120387;29;20055;-78
2022/11/09 02:11:04;;;;;;;3.25;1.25;;;;;;;14.10;61.55;99508.38;10147724;29;20056;-78
2022/11/09 02:16:09;;;;;;;3.45;1.08;;;;;;;14.05;61.23;99503.47;10138541;29;20060;-77
2022/11/09 02:21:14;;;;;;;3.10;0.80;;;;;;;14.12;61.19;99506.31;10168866;29;20117;-77
2022/11/09 02:26:21;;;;;;;1.92;0.98;;;;;;;14.23;60.74;99497.03;10140632;29;20049;-78
2022/11/09 02:31:31;;;;;;;1.38;1.00;;;;;;;14.06;60.99;99497.03;10128132;29;20048;-77
2022/11/09 02:36:35;;;;;;;2.47;0.77;;;;;;;14.22;60.88;99498.91;10110552;29;20124;-78
2022/11/09 02:41:44;;;;;;;3.53;1.20;;;;;;;13.85;62.16;99510.19;10130316;29;20060;-78
2022/11/09 02:46:47;;;;;;;1.83;0.90;;;;;;;14.04;61.88;99490.97;10096832;29;20051;-78
2022/11/09 02:51:51;;;;;;;1.40;0.95;;;;;;;13.98;62.00;99482.69;10129866;29;20049;-78
2022/11/09 02:56:55;;;;;;;2.15;1.05;;;;;;;13.81;62.75;99479.16;10126921;29;20049;-78
2022/11/09 03:01:58;;;;;;;1.20;1.00;;;;;;;13.95;62.26;99486.56;10138117;29;20053;-78
2022/11/09 03:07:04;;;;;;;1.67;0.95;;;;;;;13.74;63.00;99492.47;10123657;29;20073;-78
2022/11/09 03:17:27;;;;;;;0.82;0.82;;;;;;;14.07;62.12;99503.28;10140805;29;20072;-78
2022/11/09 03:22:31;;;;;;;1.58;0.88;;;;;;;13.70;63.06;99499.19;10126504;29;20049;-78
2022/11/09 03:27:34;;;;;;;1.75;0.90;;;;;;;13.81;63.06;99515.06;10116647;29;20524;-77
2022/11/09 03:32:37;;;;;;;1.20;1.05;;;;;;;13.73;63.16;99508.81;10133482;29;20076;-77
2022/11/09 03:37:42;;;;;;;1.65;1.20;;;;;;;13.69;63.49;99502.91;10118541;29;20045;-77
2022/11/09 03:42:47;;;;;;;1.63;1.10;;;;;;;13.56;64.04;99507.94;10124493;29;20442;-78
2022/11/09 03:47:50;;;;;;;0.85;0.77;;;;;;;13.65;63.66;99507.78;10130156;29;20161;-77
2022/11/09 03:52:54;;;;;;;2.30;1.00;;;;;;;13.63;64.05;99517.91;10110226;29;20056;-77
2022/11/09 03:57:56;;;;;;;2.33;1.00;;;;;;;13.58;64.38;99509.47;10118017;29;20128;-78
2022/11/09 04:02:59;;;;;;;1.35;0.93;;;;;;;13.31;65.04;99521.31;10110865;29;20065;-78
2022/11/09 04:08:04;;;;;;;5.68;0.80;;;;;;;13.34;65.19;99525.56;10120892;29;20132;-78
2022/11/09 04:13:07;;;;;;;1.88;0.88;;;;;;;13.69;64.35;99513.72;10201000;23;20091;-76
2022/11/09 04:18:13;;;;;;;1.13;0.98;;;;;;;13.65;64.40;99515.03;10171275;29;20059;-76
2022/11/09 04:23:18;;;;;;;2.35;1.20;;;;;;;13.54;64.64;99516.19;10162915;29;20567;-76
2022/11/09 04:28:22;;;;;;;1.67;0.88;;;;;;;13.57;64.89;99523.94;10143292;29;20156;-76
2022/11/09 04:33:25;;;;;;;1.85;1.25;;;;;;;13.54;65.22;99521.59;10220442;23;20749;-79
2022/11/09 04:38:29;;;;;;;2.47;0.98;;;;;;;13.56;65.03;99538.47;10207620;29;20066;-79
2022/11/09 04:43:32;;;;;;;3.78;1.25;;;;;;;13.51;65.13;99529.19;10179378;29;20044;-80
2022/11/09 04:48:35;;;;;;;2.45;1.60;;;;;;;13.57;65.30;99542.00;10195677;29;20040;-79
2022/11/09 04:53:39;;;;;;;1.42;1.00;;;;;;;13.34;65.98;99549.81;10195186;29;20371;-80
2022/11/09 04:58:42;;;;;;;1.73;0.95;;;;;;;13.43;65.83;99538.09;10196228;29;20055;-80
2022/11/09 05:03:45;;;;;;;4.47;1.20;;;;;;;13.40;66.20;99551.91;10208417;29;20102;-80
2022/11/09 05:08:49;;;;;;;2.65;1.60;;;;;;;13.50;65.89;99549.91;10220313;29;20044;-80
2022/11/09 05:13:52;;;;;;;2.42;1.30;;;;;;;13.51;65.86;99551.59;10205168;29;20055;-79
2022/11/09 05:18:55;;;;;;;2.22;0.95;;;;;;;13.28;66.49;99557.56;10184725;29;20107;-79
2022/11/09 05:24:00;;;;;;;2.88;1.05;;;;;;;13.46;66.36;99564.72;10206326;29;20103;-80
2022/11/09 05:29:05;;;;;;;4.47;1.70;;;;;;;13.32;66.86;99541.88;10191798;29;20047;-79
2022/11/09 05:34:12;;;;;;;2.53;1.10;;;;;;;13.08;67.43;99556.09;10211133;29;20044;-78
2022/11/09 05:39:16;;;;;;;5.45;1.75;;;;;;;13.19;67.24;99539.66;10201132;29;20040;-81
2022/11/09 05:44:19;;;;;;;2.65;1.40;;;;;;;13.35;66.93;99538.03;10215028;29;20059;-80
2022/11/09 05:49:22;;;;;;;4.28;1.45;;;;;;;13.32;67.00;99547.28;10198140;29;20111;-81
2022/11/09 05:54:26;;;;;;;3.88;1.08;;;;;;;13.21;67.88;99559.19;10191767;29;20086;-80
2022/11/09 05:59:28;;;;;;;4.13;1.23;;;;;;;13.17;67.64;99541.66;10184169;29;20136;-81
2022/11/09 06:04:31;;;;;;;2.78;1.25;;;;;;;13.38;66.92;99549.34;10215824;29;20050;-80
2022/11/09 06:09:36;;;;;;;5.47;1.67;;;;;;;13.19;67.67;99549.56;10213282;29;20051;-81
2022/11/09 06:14:38;;;;;;;2.70;1.17;;;;;;;13.22;67.62;99555.50;10203170;29;20493;-80
2022/11/09 06:19:41;;;;;;;3.92;1.05;;;;;;;13.30;66.96;99548.44;10193086;29;20668;-81
2022/11/09 06:24:45;;;;;;;5.53;1.63;;;;;;;13.42;66.78;99560.69;10199139;29;20086;-80
2022/11/09 06:29:48;;;;;;;4.05;1.27;;;;;;;13.18;67.25;99564.91;10214666;29;20047;-80
2022/11/09 06:34:51;;;;;;;2.65;0.90;;;;;;;13.12;67.51;99562.88;10196378;29;20056;-78
2022/11/09 06:39:55;;;;;;;1.98;1.10;;;;;;;13.02;68.16;99567.53;10201293;29;20075;-79
2022/11/09 06:44:58;;;;;;;3.55;1.25;;;;;;;13.33;67.14;99572.38;10195263;29;20052;-79
2022/11/09 06:50:01;;;;;;;3.80;1.25;;;;;;;13.18;67.15;99581.09;10208096;29;20131;-79
2022/11/09 06:55:07;;;;;;;1.80;1.10;;;;;;;13.09;67.65;99594.72;10210584;29;20439;-79
2022/11/09 07:00:11;;;;;;;2.70;1.02;;;;;;;13.01;67.88;99600.88;10197593;29;20078;-79
2022/11/09 07:05:14;;;;;;;3.67;0.93;;;;;;;12.96;68.26;99597.81;10199660;29;20075;-80
2022/11/09 07:10:18;;;;;;;1.27;0.70;;;;;;;13.20;67.21;99603.34;10202810;29;20044;-79
2022/11/09 07:15:21;;;;;;;4.18;1.23;;;;;;;13.08;67.52;99609.19;10218778;29;20040;-78
2022/11/09 07:20:25;;;;;;;3.92;1.10;;;;;;;13.10;67.34;99604.47;10252697;28;20095;-78
2022/11/09 07:25:29;;;;;;;3.67;0.95;;;;;;;12.94;67.25;99614.16;10240323;29;20059;-79
2022/11/09 07:30:31;;;;;;;1.40;0.70;;;;;;;13.05;66.81;99604.94;10210396;29;20072;-78
2022/11/09 07:35:34;;;;;;;2.95;1.17;;;;;;;13.13;66.40;99602.28;10191352;29;20067;-78
2022/11/09 07:40:39;;;;;;;5.18;1.20;;;;;;;13.32;65.98;99612.00;10194823;29;20423;-78
2022/11/09 07:45:42;;;;;;;5.65;0.98;;;;;;;13.39;66.21;99612.25;10177930;29;20426;-79
2022/11/09 07:50:45;;;;;;;2.13;1.20;;;;;;;13.19;66.82;99623.25;10156698;29;20043;-78
2022/11/09 07:55:57;;;;;;;2.17;1.10;;;;;;;13.34;65.78;99609.16;10169195;29;20056;-79
2022/11/09 08:01:00;;;;;;;6.03;1.10;;;;;;;13.31;65.68;99625.66;10158615;29;20131;-82
2022/11/09 08:06:03;;;;;;;2.85;1.10;;;;;;;13.39;65.24;99620.34;10151724;29;20283;-78
2022/11/09 08:11:07;;;;;;;3.10;0.82;;;;;;;13.40;65.17;99625.56;10137827;29;20078;-79
2022/11/09 08:16:10;;;;;;;4.88;0.90;;;;;;;13.37;65.73;99627.75;10147514;29;20048;-79
2022/11/09 08:21:13;;;;;;;3.42;1.05;;;;;;;13.61;64.99;99638.66;10156669;29;20047;-79
2022/11/09 08:26:17;;;;;;;5.03;1.20;;;;;;;13.27;65.81;99644.00;10143769;29;20071;-79
2022/11/09 08:31:20;;;;;;;5.07;1.05;;;;;;;13.63;64.28;99649.28;10165282;29;20130;-78
2022/11/09 08:36:24;;;;;;;7.15;1.85;;;;;;;14.36;62.65;99654.06;10151611;29;20044;-80
2022/11/09 08:41:29;;;;;;;3.67;0.90;;;;;;;13.74;63.86;99654.41;10160036;29;20106;-80
2022/11/09 08:46:32;;;;;;;4.60;1.70;;;;;;;13.83;63.11;99661.50;10163949;29;20159;-80
2022/11/09 08:51:41;;;;;;;4.25;1.50;;;;;;;13.89;63.38;99665.41;10172072;29;20705;-80
2022/11/09 08:56:45;;;;;;;4.60;1.58;;;;;;;13.92;63.01;99667.78;10152387;29;20036;-80
2022/11/09 09:01:48;;;;;;;4.38;1.48;;;;;;;13.94;63.50;99666.63;10165622;29;20048;-80
2022/11/09 09:06:52;;;;;;;4.18;1.38;;;;;;;13.70;63.45;99670.06;10177140;29;20056;-80
2022/11/09 09:11:57;;;;;;;11.60;5.47;;;;;;;13.98;63.19;99680.63;10152863;29;20051;-79
2022/11/09 09:17:00;;;;;;;12.13;3.47;;;;;;;14.90;60.22;99672.53;10150719;29;20083;-79
2022/11/09 09:22:03;;;;;;;6.70;1.10;;;;;;;14.08;62.02;99683.19;10151544;29;20048;-80
2022/11/09 09:27:07;;;;;;;12.10;4.00;;;;;;;14.45;62.13;99681.97;10137991;29;21328;-80
2022/11/09 09:32:10;;;;;;;6.25;0.70;;;;;;;14.35;62.39;99698.31;10149556;29;21345;-80
2022/11/09 09:37:13;;;;;;;11.93;4.30;;;;;;;14.06;62.41;99701.41;10168502;29;20056;-79
2022/11/09 09:42:22;;;;;;;6.47;1.30;;;;;;;14.33;61.68;99693.06;10159018;29;20054;-79
2022/11/09 09:47:33;;;;;;;4.53;0.90;;;;;;;14.02;62.56;99700.06;10159339;29;20051;-80
2022/11/09 09:52:40;;;;;;;4.20;1.08;;;;;;;13.70;62.67;99710.53;10169878;29;20059;-79
2022/11/09 09:57:55;;;;;;;3.05;0.80;;;;;;;13.79;62.60;99706.03;10188568;29;20103;-79
2022/11/09 10:02:57;;;;;;;4.05;0.90;;;;;;;13.45;62.98;99711.41;10177260;29;20060;-80
2022/11/09 10:08:09;;;;;;;1.98;1.10;;;;;;;14.11;61.18;99715.28;10159149;29;20135;-80
2022/11/09 10:13:40;;;;;;;4.88;0.82;;;;;;;14.25;60.68;99713.81;10161515;29;20115;-80
2022/11/09 10:19:08;;;;;;;5.78;1.08;;;;;;;14.23;60.64;99718.50;10153836;29;20044;-79
2022/11/09 10:24:24;;;;;;;3.33;1.25;;;;;;;14.75;59.88;99702.94;10165298;29;20048;-80
2022/11/09 10:29:35;;;;;;;6.35;1.10;;;;;;;14.89;58.81;99687.06;10187751;29;20123;-77
2022/11/09 10:34:43;;;;;;;0.98;0.57;;;;;;;14.77;58.47;99691.97;10169503;29;20070;-78
2022/11/09 10:39:51;;;;;;;3.17;0.93;;;;;;;14.67;59.48;99716.44;10154923;29;20048;-79
2022/11/09 10:45:21;;;;;;;3.88;1.15;;;;;;;13.99;61.45;99695.84;10170018;29;20047;-79
2022/11/09 10:50:50;;;;;;;4.68;1.15;;;;;;;14.69;59.99;99686.53;10161668;29;20052;-78
2022/11/09 10:56:15;;;;;;;4.45;1.80;;;;;;;14.64;59.34;99694.31;10144794;29;20048;-80
2022/11/09 11:01:42;;;;;;;4.20;1.27;;;;;;;14.74;59.62;99684.19;10153956;29;20052;-78
2022/11/09 11:07:14;;;;;;;2.88;0.70;;;;;;;14.10;60.51;99695.53;10147709;29;20047;-78
2022/11/09 11:12:41;;;;;;;4.25;0.85;;;;;;;14.37;59.95;99705.22;10165360;29;20051;-79
2022/11/09 11:18:12;;;;;;;7.30;1.38;;;;;;;14.66;58.11;99687.72;10104138;29;20052;-79
2022/11/09 11:23:35;;;;;;;2.20;0.63;;;;;;;14.02;58.35;99714.41;10127996;29;20036;-80
2022/11/09 11:29:01;;;;;;;1.58;0.70;;;;;;;13.50;59.84;99692.91;10172752;29;20071;-79
2022/11/09 11:34:24;;;;;;;4.88;1.08;;;;;;;14.20;58.61;99708.88;10158529;29;20052;-78
2022/11/09 11:40:08;;;;;;;;;;;;;;;14.59;56.58;99697.53;10175212;29;20047;-78
2022/11/09 11:45:36;;;;;;;2.60;0.98;;;;;;;14.95;56.37;99706.16;10154729;29;19927;-79
2022/11/09 11:51:09;;;;;;;1.93;0.77;;;;;;;14.56;55.75;99714.94;10169900;29;20059;-79
2022/11/09 11:56:36;;;;;;;2.05;1.02;;;;;;;15.92;52.97;99688.03;10165809;29;20425;-77
2022/11/09 12:02:24;;;;;;;1.45;0.70;;;;;;;15.96;52.95;99712.91;10137560;29;20489;-78
2022/11/09 12:07:55;;;;;;;5.38;1.10;;;;;;;14.98;54.82;99707.69;10171619;29;20059;-79
2022/11/09 12:13:38;;;;;;;2.55;1.10;;;;;;;14.90;55.42;99723.91;10147963;29;20051;-79
2022/11/09 12:19:18;;;;;;;1.90;1.02;;;;;;;14.62;55.76;99707.13;10178807;29;20055;-79
2022/11/09 12:24:56;;;;;;;3.58;1.75;;;;;;;15.91;53.63;99699.91;10171169;29;20152;-78
2022/11/09 12:30:20;;;;;;;4.80;1.30;;;;;;;16.20;51.45;99700.25;10149533;29;21193;-79
2022/11/09 12:35:46;;;;;;;2.60;0.65;;;;;;;14.72;52.86;99702.44;10146748;29;20048;-79
2022/11/09 12:41:15;;;;;;;2.78;0.55;;;;;;;14.17;53.71;99701.09;10171509;29;21604;-81
2022/11/09 12:46:43;;;;;;;3.33;0.82;;;;;;;15.12;51.37;99711.56;10154203;29;20738;-80
2022/11/09 12:52:06;;;;;;;1.60;0.70;;;;;;;15.47;49.47;99707.66;10164117;29;20718;-79
2022/11/09 12:57:32;;;;;;;2.10;0.77;;;;;;;15.65;50.10;99712.84;10155283;29;20047;-80
2022/11/09 13:02:56;;;;;;;4.10;1.10;;;;;;;15.51;49.74;99721.69;10170347;29;20486;-80
2022/11/09 13:08:23;;;;;;;2.95;0.93;;;;;;;15.49;50.10;99708.31;10139726;29;20055;-79
2022/11/09 13:13:47;;;;;;;4.30;1.08;;;;;;;14.76;51.19;99734.38;10175978;29;20044;-79
2022/11/09 13:19:08;;;;;;;2.72;1.25;;;;;;;14.72;52.09;99724.91;10170291;29;20056;-80
2022/11/09 13:24:55;;;;;;;1.92;0.60;;;;;;;14.70;52.81;99736.88;10162342;29;21130;-80
2022/11/09 13:30:41;;;;;;;3.45;0.98;;;;;;;15.12;51.90;99723.22;10169958;29;20052;-80
2022/11/09 13:36:21;;;;;;;1.05;0.77;;;;;;;14.95;51.93;99726.97;10170423;29;20456;-79
2022/11/09 13:41:43;;;;;;;5.28;1.20;;;;;;;15.06;51.85;99732.03;10196665;29;20044;-79
2022/11/09 13:47:21;;;;;;;1.58;0.85;;;;;;;15.17;51.62;99738.97;10164468;29;20075;-76
2022/11/09 13:52:49;;;;;;;4.10;0.95;;;;;;;15.14;51.57;99729.31;10162566;29;20060;-79
2022/11/09 13:58:22;;;;;;;3.55;0.77;;;;;;;14.94;51.35;99755.84;10171043;29;20055;-80
2022/11/09 14:03:50;;;;;;;5.13;1.10;;;;;;;14.68;52.16;99763.25;10165647;29;20053;-79
2022/11/09 14:09:18;;;;;;;2.78;0.50;;;;;;;14.33;51.79;99757.88;10158445;29;20052;-80
2022/11/09 14:14:58;;;;;;;4.60;1.08;;;;;;;14.04;52.29;99774.50;10154111;29;20127;-80
2022/11/09 14:20:31;;;;;;;4.22;0.77;;;;;;;14.13;51.72;99768.13;10150039;29;20044;-80
2022/11/09 14:25:52;;;;;;;5.72;1.00;;;;;;;14.40;51.25;99774.34;10140250;29;20466;-79
2022/11/09 14:31:23;;;;;;;4.72;1.25;;;;;;;14.27;51.77;99769.34;10134166;29;20514;-79
2022/11/09 14:36:46;;;;;;;4.07;0.90;;;;;;;14.53;50.52;99782.78;10147267;29;20687;-79
2022/11/09 14:42:12;;;;;;;5.65;0.88;;;;;;;13.90;51.11;99781.34;10160372;29;20052;-80
2022/11/09 14:47:37;;;;;;;3.20;0.82;;;;;;;14.32;50.81;99782.38;10154685;29;20052;-79
2022/11/09 14:53:01;;;;;;;4.50;0.88;;;;;;;14.43;50.25;99781.28;10152167;29;20060;-80
2022/11/09 14:58:23;;;;;;;9.68;1.05;;;;;;;14.11;50.76;99783.63;10162651;29;20502;-80
2022/11/09 15:03:46;;;;;;;6.93;1.35;;;;;;;13.88;51.69;99796.84;10184841;29;20084;-78
2022/11/09 15:09:14;;;;;;;2.55;0.95;;;;;;;13.88;52.34;99802.25;10168492;29;20193;-80
2022/11/09 15:14:36;;;;;;;4.38;0.93;;;;;;;13.45;53.11;99808.53;10156498;29;20047;-82
2022/11/09 15:19:59;;;;;;;5.95;1.55;;;;;;;13.69;52.96;99811.41;10126614;29;20060;-80
2022/11/09 15:25:26;;;;;;;3.33;0.80;;;;;;;13.36;52.98;99814.84;10178591;29;21278;-82
2022/11/09 15:31:04;;;;;;;3.85;1.08;;;;;;;13.48;52.95;99809.06;10165435;29;20129;-81
2022/11/09 15:36:30;;;;;;;2.83;1.05;;;;;;;13.51;53.11;99809.75;10165109;29;20047;-81
2022/11/09 15:41:53;;;;;;;2.47;0.82;;;;;;;13.73;52.85;99814.63;10160780;29;20059;-79
2022/11/09 15:47:21;;;;;;;3.22;0.93;;;;;;;13.63;53.20;99813.88;10156790;29;20052;-80
2022/11/09 15:52:43;;;;;;;4.50;1.00;;;;;;;13.44;53.03;99831.13;10147143;29;20047;-80
2022/11/09 15:58:06;;;;;;;4.07;1.10;;;;;;;13.35;53.78;99834.72;10164426;29;20143;-78
2022/11/09 16:03:27;;;;;;;3.20;1.10;;;;;;;13.39;53.66;99847.78;10166075;29;20131;-78
2022/11/09 16:08:49;;;;;;;6.90;0.98;;;;;;;13.31;53.93;99854.94;10183285;29;20044;-78
2022/11/09 16:14:13;;;;;;;3.75;0.98;;;;;;;13.53;53.44;99859.03;10186388;29;20056;-79
2022/11/09 16:19:35;;;;;;;8.02;2.13;;;;;;;13.32;54.03;99856.63;10167396;29;20142;-79
2022/11/09 16:24:57;;;;;;;4.07;1.02;;;;;;;13.24;54.18;99862.78;10167076;29;20048;-79
2022/11/09 16:30:20;;;;;;;3.28;1.55;;;;;;;12.98;54.90;99873.50;10158598;29;20059;-79
2022/11/09 16:35:42;;;;;;;3.15;1.17;;;;;;;12.42;56.00;99883.41;10165562;29;20060;-78
2022/11/09 16:41:04;;;;;;;2.83;0.85;;;;;;;12.51;56.28;99871.78;10157886;29;20084;-80
2022/11/09 16:46:29;;;;;;;4.05;1.35;;;;;;;12.58;56.11;99891.72;10166449;29;20048;-79
2022/11/09 16:51:50;;;;;;;1.95;1.02;;;;;;;12.22;57.34;99893.41;10186902;28;20067;-80
2022/11/09 16:57:12;;;;;;;5.25;1.35;;;;;;;12.35;57.50;99909.25;10185737;29;20056;-79
2022/11/09 17:02:35;;;;;;;8.88;1.40;;;;;;;12.21;57.52;99918.63;10159506;29;20057;-79
2022/11/09 17:07:58;;;;;;;7.03;2.10;;;;;;;12.17;58.37;99928.81;10155664;29;20418;-79
2022/11/09 17:13:19;;;;;;;7.80;1.73;;;;;;;12.17;58.58;99931.53;10164409;29;20143;-78
2022/11/09 17:18:42;;;;;;;7.88;1.42;;;;;;;12.34;58.19;99937.19;10150662;29;20048;-78
2022/11/09 17:24:05;;;;;;;;;;;;;;;12.33;58.63;99946.25;10148754;29;20462;-79
2022/11/09 17:29:26;;;;;;;8.32;1.80;;;;;;;12.19;58.65;99952.94;10154837;29;19927;-79
2022/11/09 17:34:49;;;;;;;8.30;1.52;;;;;;;12.22;58.78;99959.88;10152810;29;20051;-79
2022/11/09 17:40:11;;;;;;;5.32;1.05;;;;;;;11.85;60.40;99960.66;10170940;29;20509;-79
2022/11/09 17:45:35;;;;;;;6.60;1.58;;;;;;;11.75;60.96;99974.09;10163805;29;20185;-79
2022/11/09 17:50:59;;;;;;;4.32;1.20;;;;;;;11.52;61.79;99981.59;10171663;29;20536;-78
2022/11/09 17:56:20;;;;;;;6.03;1.27;;;;;;;11.71;61.00;99986.13;10187272;29;20048;-78
2022/11/09 18:01:42;;;;;;;5.28;1.40;;;;;;;11.58;61.67;99980.19;10176639;29;20044;-79
2022/11/09 18:07:05;;;;;;;6.88;1.63;;;;;;;11.65;61.55;99998.28;10194522;29;20719;-77
2022/11/09 18:12:26;;;;;;;5.22;1.25;;;;;;;11.70;61.20;100001.41;10171879;29;20055;-78
2022/11/09 18:17:48;;;;;;;6.40;1.23;;;;;;;11.58;61.76;100018.69;10169539;29;20703;-79
2022/11/09 18:23:11;;;;;;;6.40;0.98;;;;;;;11.24;62.61;100018.19;10162437;29;20048;-78
2022/11/09 18:28:33;;;;;;;12.57;2.20;;;;;;;11.33;62.59;100013.84;10177154;29;20102;-77
2022/11/09 18:33:54;;;;;;;6.73;1.47;;;;;;;11.35;62.74;100011.84;10151140;29;20151;-79
2022/11/09 18:39:17;;;;;;;7.10;1.70;;;;;;;11.15;63.54;100019.03;10171464;29;20143;-79
2022/11/09 18:44:38;;;;;;;;;;;;;;;11.08;63.90;100033.94;10169553;29;20040;-79
2022/11/09 18:49:59;;;;;;;6.00;1.58;;;;;;;11.08;64.28;100044.69;10155258;29;19927;-78
2022/11/09 18:55:22;;;;;;;2.70;1.15;;;;;;;11.16;64.07;100044.91;10159841;29;20059;-79
2022/11/09 19:00:44;;;;;;;2.38;1.63;;;;;;;10.93;65.04;100058.50;10147710;29;20053;-79
2022/11/09 19:06:07;;;;;;;8.20;1.80;;;;;;;11.20;64.43;100054.41;10163139;29;20067;-78
2022/11/09 19:11:30;;;;;;;4.90;1.67;;;;;;;10.99;65.14;100071.41;10164619;29;20051;-78
2022/11/09 19:16:51;;;;;;;;;;;;;;;10.95;65.58;100074.50;10161836;28;20040;-77
2022/11/09 19:22:17;;;;;;;11.65;1.92;;;;;;;10.92;65.93;100074.78;10204967;29;19926;-78
2022/11/09 19:27:40;;;;;;;6.13;1.42;;;;;;;10.76;66.49;100078.78;10173368;29;20052;-78
2022/11/09 19:33:02;;;;;;;5.95;1.55;;;;;;;10.83;66.67;100077.28;10165397;29;20059;-77
2022/11/09 19:38:23;;;;;;;8.00;1.95;;;;;;;10.82;67.04;100098.91;10161365;29;20056;-79
2022/11/09 19:43:48;;;;;;;7.88;2.10;;;;;;;10.93;66.81;100104.19;10152595;29;20048;-79
2022/11/09 19:49:10;;;;;;;8.90;2.25;;;;;;;10.68;67.87;100131.50;10154231;29;20044;-79
2022/11/09 19:54:31;;;;;;;6.63;1.42;;;;;;;10.66;67.96;100122.69;10151048;29;20096;-80
2022/11/09 19:59:54;;;;;;;5.72;2.22;;;;;;;10.68;67.56;100123.44;10149805;29;20060;-79
2022/11/09 20:05:15;;;;;;;3.95;1.35;;;;;;;10.66;68.01;100150.41;10159362;28;20112;-78
2022/11/09 20:10:37;;;;;;;5.53;1.75;;;;;;;10.55;68.35;100155.84;10209148;28;20052;-78
2022/11/09 20:16:03;;;;;;;6.65;2.47;;;;;;;10.68;68.09;100169.09;10176340;29;20139;-78
2022/11/09 20:21:25;;;;;;;9.07;1.65;;;;;;;10.95;67.42;100176.63;10155516;29;20051;-78
2022/11/09 20:26:46;;;;;;;8.50;2.10;;;;;;;11.02;67.40;100178.63;10145044;29;20051;-78
2022/11/09 20:32:12;;;;;;;6.95;1.42;;;;;;;10.91;67.21;100194.00;10156483;29;20509;-79
2022/11/09 20:37:38;;;;;;;8.10;1.58;;;;;;;10.65;68.44;100201.59;10166576;29;20178;-78
2022/11/09 20:42:59;;;;;;;4.10;1.63;;;;;;;10.84;67.85;100212.50;10170634;29;20566;-79
2022/11/09 20:48:23;;;;;;;6.15;2.03;;;;;;;10.72;67.88;100230.47;10149518;29;20461;-78
2022/11/09 20:54:04;;;;;;;5.80;1.90;;;;;;;10.93;67.45;100224.28;10159389;29;20441;-78
2022/11/09 20:59:28;;;;;;;6.28;2.38;;;;;;;11.02;67.28;100236.94;10155180;29;20056;-78
2022/11/09 21:04:50;;;;;;;6.25;1.98;;;;;;;10.78;67.85;100224.59;10165822;29;20039;-78
2022/11/09 21:10:12;;;;;;;13.35;2.25;;;;;;;10.69;68.22;100243.31;10187171;29;20055;-77
2022/11/09 21:15:33;;;;;;;6.88;1.52;;;;;;;10.65;68.24;100250.78;10136429;29;20199;-78
2022/11/09 21:20:56;;;;;;;7.20;1.98;;;;;;;10.74;68.18;100252.69;10148900;29;20059;-79
2022/11/09 21:31:57;;;;;;;4.97;2.13;;;;;;;10.43;69.21;100273.22;10144722;29;19927;-78
2022/11/09 21:37:20;;;;;;;15.85;2.70;;;;;;;10.32;69.66;100266.03;10157091;29;20052;-78
2022/11/09 21:42:41;;;;;;;8.32;1.70;;;;;;;10.48;69.00;100270.16;10162770;29;20420;-79
2022/11/09 21:48:02;;;;;;;15.75;2.25;;;;;;;10.65;68.90;100280.34;10177662;29;20402;-79
2022/11/09 21:53:26;;;;;;;9.48;1.80;;;;;;;10.47;68.85;100312.25;10196616;29;20054;-78
2022/11/09 21:58:48;;;;;;;6.75;1.27;;;;;;;10.14;70.52;100294.38;10166466;29;20064;-78
2022/11/09 22:04:10;;;;;;;8.67;1.77;;;;;;;10.46;69.50;100310.53;10168736;29;20083;-77
2022/11/09 22:09:33;;;;;;;12.70;1.75;;;;;;;10.48;69.50;100302.38;10152623;29;20071;-78
2022/11/09 22:20:56;;;;;;;8.30;2.20;;;;;;;10.52;69.73;100307.34;10189758;29;20048;-76
2022/11/09 22:26:18;;;;;;;;;;;;;;;10.28;70.17;100323.63;10169004;29;20063;-79
2022/11/09 22:31:40;;;;;;;6.53;2.03;;;;;;;10.35;70.47;100327.53;10181739;29;20296;-78
2022/11/09 22:37:01;;;;;;;10.25;2.30;;;;;;;10.53;69.73;100319.81;10188337;29;20135;-78
2022/11/09 22:42:24;;;;;;;7.38;1.92;;;;;;;10.36;70.06;100337.28;10181827;29;20048;-78
2022/11/09 22:47:45;;;;;;;9.48;2.28;;;;;;;10.53;69.70;100349.38;10181654;29;20088;-79
2022/11/09 22:53:06;;;;;;;7.40;2.20;;;;;;;10.08;71.17;100367.31;10192491;29;20094;-79
2022/11/09 22:58:29;;;;;;;11.30;2.50;;;;;;;10.20;71.42;100368.16;10135535;29;20049;-79
2022/11/09 23:03:51;;;;;;;;;;;;;;;10.10;71.84;100385.03;10169710;29;20047;-77
2022/11/09 23:09:12;;;;;;;8.50;2.60;;;;;;;10.38;70.94;100388.19;10187277;29;20329;-78
2022/11/09 23:20:14;;;;;;;10.38;2.22;;;;;;;10.19;71.78;100401.38;10221293;28;20123;-80
2022/11/09 23:25:55;;;;;;;11.83;2.47;;;;;;;10.00;72.33;100410.00;10230900;28;20044;-76
2022/11/09 23:31:22;;;;;;;7.95;2.55;;;;;;;10.11;72.39;100410.03;10180265;29;20048;-78
2022/11/09 23:36:44;;;;;;;11.32;3.35;;;;;;;10.34;71.59;100424.34;10191749;29;20055;-76
2022/11/09 23:42:05;;;;;;;8.95;2.45;;;;;;;9.86;72.76;100422.69;10199696;29;20079;-79
2022/11/09 23:47:28;;;;;;;14.75;3.85;;;;;;;10.07;72.24;100433.56;10196824;29;20048;-79
2022/11/09 23:52:49;;;;;;;10.30;3.25;;;;;;;9.98;73.05;100442.31;10196789;29;20048;-79
2022/11/09 23:58:11;;;;;;;7.05;3.15;;;;;;;9.82;73.22;100449.81;10209959;29;20047;-79
